This is the latest recevied weather packets stored in our database for station/object DG6HD-13. If no packets are shown the sender has not sent any weather packets the latest 10 day(s).
| Time | Temp. | Humidity | Pressure | Rain* | Wind** | Luminosity | Snow |
|---|---|---|---|---|---|---|---|
| 1777783216 | 12.22° C | 51% | 1012.5 hPa | - | - | - | - |
| 1777782315 | 12.22° C | 50% | 1012.7 hPa | - | - | - | - |
| 1777781414 | 12.22° C | 49% | 1012.8 hPa | - | - | - | - |
| 1777780514 | 12.22° C | 49% | 1012.9 hPa | - | - | - | - |
| 1777779613 | 12.78° C | 49% | 1013 hPa | - | - | - | - |
| 1777778712 | 12.78° C | 48% | 1012.8 hPa | - | - | - | - |
| 1777777811 | 12.78° C | 48% | 1013.1 hPa | - | - | - | - |
| 1777776910 | 13.33° C | 48% | 1013.2 hPa | - | - | - | - |
| 1777775109 | 13.33° C | 47% | 1013.4 hPa | - | - | - | - |
| 1777773307 | 13.89° C | 47% | 1013.5 hPa | - | - | - | - |
| 1777763398 | 15.56° C | 42% | 1014 hPa | - | - | - | - |
| 1777760695 | 16.11° C | 41% | 1013.8 hPa | - | - | - | - |
| 1777759795 | 16.67° C | 41% | 1013.9 hPa | - | - | - | - |
| 1777758894 | 16.67° C | 40% | 1013.9 hPa | - | - | - | - |
| 1777757092 | 17.22° C | 40% | 1014.1 hPa | - | - | - | - |
| 1777756191 | 17.22° C | 39% | 1014.2 hPa | - | - | - | - |
| 1777755290 | 17.78° C | 39% | 1014.3 hPa | - | - | - | - |
| 1777752587 | 18.33° C | 38% | 1014.4 hPa | - | - | - | - |
| 1777749885 | 19.44° C | 37% | 1014.5 hPa | - | - | - | - |
| 1777748984 | 19.44° C | 37% | 1014.5 hPa | - | - | - | - |
| 1777748083 | 19.44° C | 38% | 1014.3 hPa | - | - | - | - |
| 1777745380 | 21.11° C | 36% | 1014.6 hPa | - | - | - | - |
| 1777744480 | 21.67° C | 36% | 1014.6 hPa | - | - | - | - |
| 1777743579 | 21.67° C | 36% | 1014.6 hPa | - | - | - | - |
| 1777742678 | 22.22° C | 35% | 1014.7 hPa | - | - | - | - |
* Rain since midnight (hover to see other rain measurements)
** Current wind speed in m/s (hover to see current wind gust speed)